Terminal Aerodrome Forecast
Issued by NWS Sterling, VA

Current Version | Previous Version | Text Only | Print | Product List | Glossary On
Versions: 1 2 3 4 5 6 7 8 9 10 11 12 13 14 15 16 17 18 19 20 21 22 23 24
968
FTUS41 KLWX 180526
TAFDCA
TAF
KDCA 180526Z 1806/1906 VRB03KT 1/4SM FG VV001
     FM180900 30004KT 3SM BR BKN025
     FM181100 29004KT P6SM BKN040
     FM181500 31010G19KT P6SM BKN035
     FM182200 32009KT P6SM SCT045=

USA.gov is the U.S. government's official web portal to all federal, state and local government web resources and services.